PWSweather.com
Personal Weather Stations
Station Observations
SANDHURSTWX
SandhurstGB

SandhurstGB

Lat: 51.3522, Lon: -0.7739

Elevation: 272.3

Station Type: Davis VP2

www.sandhurstweather.org.uk

High Low Average
Temperature 34.3°F1.3°C 31.9°F-0.1°C 32.9°F0.5°C
Dew Point 33.3°F0.7°C 30.6°F-0.8°C 31.9°F-0.1°C
Winds 11.5 mph 18.5 kmh Calm Calm 6.0 mph E9.7 kmh E
Wind Gusts 16.1 mph25.9 kmh -- 10.0 mph16.1 kmh
Humidity 97% 95% 96%
Pressure 29.41 in995.9 mb 29.00 in982.1 mb -
Precipitation 0.13 in3.3 mm - -
Hour Temp Dew Point Humidity Winds Wind Gusts Pressure Precip Precip Rate Daily Precip Total
12:00 AM 31.9°F-0.1°C 30.6°F-0.8°C 95% 6.9 mph NE11.1 kmh NE 13.8 mph22.2 kmh 29.02 in982.7 mb - 0.00 in0.0 mm 0.00 in0.0 mm
01:00 AM 31.9°F-0.1°C 30.6°F-0.8°C 95% 6.9 mph ENE11.1 kmh ENE 16.1 mph25.9 kmh 29.02 in982.7 mb - 0.00 in0.0 mm 0.00 in0.0 mm
02:00 AM 31.9°F-0.1°C 30.7°F-0.7°C 95% 6.9 mph ENE11.1 kmh ENE 9.2 mph14.8 kmh 29.02 in982.7 mb - 0.00 in0.0 mm 0.00 in0.0 mm
03:00 AM 32.2°F0.1°C 30.9°F-0.6°C 95% 11.5 mph NE18.5 kmh NE 15.0 mph24.1 kmh 29.01 in982.4 mb - 0.00 in0.0 mm 0.00 in0.0 mm
04:00 AM 32.3°F0.2°C 31.3°F-0.4°C 96% 8.1 mph NE13.0 kmh NE 12.7 mph20.4 kmh 29.00 in982.1 mb - 0.00 in0.0 mm 0.00 in0.0 mm
05:00 AM 32.4°F0.2°C 31.4°F-0.3°C 96% 6.9 mph ENE11.1 kmh ENE 13.8 mph22.2 kmh 29.01 in982.4 mb - 0.00 in0.0 mm 0.00 in0.0 mm
06:00 AM 32.4°F0.2°C 31.4°F-0.3°C 96% 8.1 mph NE13.0 kmh NE 11.5 mph18.5 kmh 29.02 in982.7 mb - 0.00 in0.0 mm 0.00 in0.0 mm
07:00 AM 32.6°F0.3°C 31.6°F-0.2°C 96% 8.1 mph ENE13.0 kmh ENE 10.4 mph16.7 kmh 29.04 in983.4 mb - 0.00 in0.0 mm 0.00 in0.0 mm
08:00 AM 32.8°F0.4°C 31.8°F-0.1°C 96% 6.9 mph ENE11.1 kmh ENE 13.8 mph22.2 kmh 29.05 in983.7 mb - 0.00 in0.0 mm 0.00 in0.0 mm
09:00 AM 33.0°F0.6°C 32.0°F0.0°C 96% 11.5 mph NE18.5 kmh NE 13.8 mph22.2 kmh 29.08 in984.8 mb - 0.00 in0.0 mm 0.00 in0.0 mm
10:00 AM 33.3°F0.7°C 32.3°F0.2°C 96% 6.9 mph NE11.1 kmh NE 9.2 mph14.8 kmh 29.10 in985.4 mb - 0.00 in0.0 mm 0.00 in0.0 mm
11:00 AM 33.7°F0.9°C 32.7°F0.4°C 96% 9.2 mph NE14.8 kmh NE 13.8 mph22.2 kmh 29.12 in986.1 mb - 0.00 in0.0 mm 0.00 in0.0 mm
12:00 PM 33.8°F1.0°C 32.8°F0.4°C 96% 9.2 mph NE14.8 kmh NE 12.7 mph20.4 kmh 29.13 in986.5 mb - 0.00 in0.0 mm 0.00 in0.0 mm
01:00 PM 34.3°F1.3°C 33.3°F0.7°C 96% 4.6 mph NE7.4 kmh NE 16.1 mph25.9 kmh 29.14 in986.8 mb - 0.00 in0.0 mm 0.00 in0.0 mm
02:00 PM 34.3°F1.3°C 33.3°F0.7°C 96% 5.8 mph NE9.3 kmh NE 12.7 mph20.4 kmh 29.15 in987.1 mb - 0.04 in1.0 mm 0.04 in1.0 mm
03:00 PM 34.2°F1.2°C 32.9°F0.5°C 95% 6.9 mph NE11.1 kmh NE 15.0 mph24.1 kmh 29.18 in988.1 mb - 0.02 in0.5 mm 0.06 in1.5 mm
04:00 PM 33.6°F0.9°C 32.4°F0.2°C 95% 4.6 mph 7.4 kmh 8.1 mph13.0 kmh 29.22 in989.5 mb - 0.02 in0.5 mm 0.09 in2.3 mm
05:00 PM 32.9°F0.5°C 31.9°F-0.1°C 96% 3.5 mph N5.6 kmh N 4.6 mph7.4 kmh 29.25 in990.5 mb - 0.01 in0.3 mm 0.09 in2.3 mm
06:00 PM 32.6°F0.3°C 31.6°F-0.2°C 96% 1.2 mph N1.9 kmh N 3.5 mph5.6 kmh 29.28 in991.5 mb - 0.02 in0.5 mm 0.11 in2.8 mm
07:00 PM 32.6°F0.3°C 31.8°F-0.1°C 97% Calm Calm -- 29.31 in992.6 mb - 0.00 in0.0 mm 0.11 in2.8 mm
08:00 PM 32.6°F0.3°C 31.8°F-0.1°C 97% Calm Calm -- 29.34 in993.6 mb - 0.01 in0.3 mm 0.12 in3.0 mm
09:00 PM 32.7°F0.4°C 31.9°F-0.1°C 97% 1.2 mph NW1.9 kmh NW 3.5 mph5.6 kmh 29.35 in993.9 mb - 0.00 in0.0 mm 0.12 in3.0 mm
10:00 PM 32.8°F0.4°C 32.0°F0.0°C 97% 2.3 mph NNW3.7 kmh NNW 3.5 mph5.6 kmh 29.39 in995.3 mb - 0.01 in0.3 mm 0.13 in3.3 mm
11:00 PM 33.0°F0.6°C 32.2°F0.1°C 97% 3.5 mph N5.6 kmh N 5.8 mph9.3 kmh 29.41 in995.9 mb - 0.01 in0.3 mm 0.13 in3.3 mm